Time;durP1;ratioP1;P1;durP2;ratioP2;P2;SDS_P1;SDS_P2;PMS_P1;PMS_P2;Temp;Humidity;BMP_temperature;BMP_pressure;BME280_temperature;BME280_humidity;BME280_pressure;Samples;Min_cycle;Max_cycle;Signal;HPM_P1;HPM_P2
2022/04/29 00:01:57;;;;;;;;;;;15.00;99.90;;;;;;5009767;28;19941;-71
2022/04/29 00:04:23;;;;;;;;;;;14.90;99.90;;;;;;5011379;28;20052;-71
2022/04/29 00:06:49;;;;;;;;;;;15.00;99.90;;;;;;5011185;28;19910;-72
2022/04/29 00:09:15;;;;;;;;;;;15.00;99.90;;;;;;5009755;28;19912;-71
2022/04/29 00:11:41;;;;;;;;;;;14.90;99.90;;;;;;5011626;28;20000;-70
2022/04/29 00:14:06;;;;;;;;;;;14.90;99.90;;;;;;5005902;28;19905;-70
2022/04/29 00:16:32;;;;;;;;;;;14.90;99.90;;;;;;5009678;28;19910;-69
2022/04/29 00:18:57;;;;;;;;;;;15.00;99.90;;;;;;5010774;28;19909;-71
2022/04/29 00:21:23;;;;;;;;;;;15.00;99.90;;;;;;5009627;28;20277;-69
2022/04/29 00:23:49;;;;;;;;;;;15.00;99.90;;;;;;5007744;28;19909;-71
2022/04/29 00:26:18;;;;;;;;;;;15.00;99.90;;;;;;5009615;28;19906;-72
2022/04/29 00:28:48;;;;;;;;;;;15.00;99.90;;;;;;5005573;28;19909;-71
2022/04/29 00:31:30;;;;;;;;;;;15.00;99.90;;;;;;5006777;28;19921;-73
2022/04/29 00:33:59;;;;;;;;;;;15.00;99.90;;;;;;5000602;28;20182;-73
2022/04/29 00:36:24;;;;;;;;;;;15.00;99.90;;;;;;5000504;28;20370;-71
2022/04/29 00:38:50;;;;;;;;;;;15.00;99.90;;;;;;5007945;28;19982;-70
2022/04/29 00:41:16;;;;;;;;;;;14.90;99.90;;;;;;5004288;28;19968;-71
2022/04/29 00:43:42;;;;;;;;;;;14.90;99.90;;;;;;5009204;28;19916;-70
2022/04/29 00:46:08;;;;;;;;;;;14.80;99.90;;;;;;5007638;28;19909;-71
2022/04/29 00:48:34;;;;;;;;;;;14.80;99.90;;;;;;5009875;28;20022;-70
2022/04/29 00:50:59;;;;;;;;;;;14.70;99.90;;;;;;5010900;28;19964;-71
2022/04/29 00:53:26;;;;;;;;;;;14.70;99.90;;;;;;5008346;28;19910;-71
2022/04/29 00:55:54;;;;;;;;;;;14.60;99.90;;;;;;5009846;28;20332;-71
2022/04/29 00:58:33;;;;;;;;;;;14.60;99.90;;;;;;5010492;28;19920;-70
2022/04/29 01:01:02;;;;;;;;;;;14.60;99.90;;;;;;5009916;28;19909;-72
2022/04/29 01:03:28;;;;;;;;;;;14.50;99.90;;;;;;5006984;28;19936;-71
2022/04/29 01:05:54;;;;;;;;;;;14.40;99.90;;;;;;5009838;28;19910;-71
2022/04/29 01:08:20;;;;;;;;;;;14.40;99.90;;;;;;5011879;28;19905;-71
2022/04/29 01:10:46;;;;;;;;;;;14.40;99.90;;;;;;5005640;28;19913;-72
2022/04/29 01:13:12;;;;;;;;;;;14.40;99.90;;;;;;5008347;28;19916;-71
2022/04/29 01:15:37;;;;;;;;;;;14.40;99.90;;;;;;5009106;28;19910;-71
2022/04/29 01:18:06;;;;;;;;;;;14.40;99.90;;;;;;5011820;28;19917;-70
2022/04/29 01:20:33;;;;;;;;;;;14.40;99.90;;;;;;5010707;28;19963;-75
2022/04/29 01:22:58;;;;;;;;;;;14.40;99.90;;;;;;5011356;28;19975;-71
2022/04/29 01:25:25;;;;;;;;;;;14.50;99.90;;;;;;5007702;28;19913;-72
2022/04/29 01:27:51;;;;;;;;;;;14.50;99.90;;;;;;5009186;28;19940;-70
2022/04/29 01:30:16;;;;;;;;;;;14.50;99.90;;;;;;5006360;28;19913;-73
2022/04/29 01:32:42;;;;;;;;;;;14.60;99.90;;;;;;5008235;28;20330;-70
2022/04/29 01:35:09;;;;;;;;;;;14.50;99.90;;;;;;5009242;28;19909;-71
2022/04/29 01:37:35;;;;;;;;;;;14.50;99.90;;;;;;5010784;28;19987;-73
2022/04/29 01:40:01;;;;;;;;;;;14.40;99.90;;;;;;5000808;28;19942;-73
2022/04/29 01:42:27;;;;;;;;;;;14.40;99.90;;;;;;5001249;28;21108;-72
2022/04/29 01:44:52;;;;;;;;;;;14.30;99.90;;;;;;5004502;28;20381;-71
2022/04/29 01:47:18;;;;;;;;;;;14.30;99.90;;;;;;5005722;28;20067;-70
2022/04/29 01:49:44;;;;;;;;;;;14.30;99.90;;;;;;5008976;28;19909;-73
2022/04/29 01:52:09;;;;;;;;;;;14.40;99.90;;;;;;5006768;28;19910;-71
2022/04/29 01:54:36;;;;;;;;;;;14.30;99.90;;;;;;5010062;28;20341;-72
2022/04/29 01:57:01;;;;;;;;;;;14.30;99.90;;;;;;5007549;28;19909;-73
2022/04/29 01:59:28;;;;;;;;;;;14.30;99.90;;;;;;5009628;28;19913;-71
2022/04/29 02:01:53;;;;;;;;;;;14.20;99.90;;;;;;5008141;28;19916;-72
2022/04/29 02:04:19;;;;;;;;;;;14.20;99.90;;;;;;5007960;28;20316;-72
2022/04/29 02:06:45;;;;;;;;;;;14.10;99.90;;;;;;5008488;28;19909;-71
2022/04/29 02:09:10;;;;;;;;;;;14.20;99.90;;;;;;5007814;28;20424;-71
2022/04/29 02:11:36;;;;;;;;;;;14.20;99.90;;;;;;5007080;28;19972;-71
2022/04/29 02:14:01;;;;;;;;;;;14.20;99.90;;;;;;5009394;28;19913;-71
2022/04/29 02:16:27;;;;;;;;;;;14.10;99.90;;;;;;5008965;28;19920;-71
2022/04/29 02:18:53;;;;;;;;;;;14.10;99.90;;;;;;5007841;28;19914;-71
2022/04/29 02:21:18;;;;;;;;;;;14.20;99.90;;;;;;5007538;28;19975;-74
2022/04/29 02:23:44;;;;;;;;;;;14.20;99.90;;;;;;5008165;28;19910;-70
2022/04/29 02:26:10;;;;;;;;;;;14.20;99.90;;;;;;5007214;28;20028;-72
2022/04/29 02:28:35;;;;;;;;;;;14.30;99.90;;;;;;5008737;28;19913;-71
2022/04/29 02:31:01;;;;;;;;;;;14.30;99.90;;;;;;5008403;28;19917;-71
2022/04/29 02:33:27;;;;;;;;;;;14.40;99.90;;;;;;5008515;28;20050;-72
2022/04/29 02:35:53;;;;;;;;;;;14.50;99.90;;;;;;5007439;28;20304;-71
2022/04/29 02:38:19;;;;;;;;;;;14.50;99.90;;;;;;5011553;28;19920;-71
2022/04/29 02:40:45;;;;;;;;;;;14.50;99.90;;;;;;5006540;28;19913;-72
2022/04/29 02:43:10;;;;;;;;;;;14.50;99.90;;;;;;5008985;28;19909;-72
2022/04/29 02:45:36;;;;;;;;;;;14.50;99.90;;;;;;5007583;28;19913;-71
2022/04/29 02:48:04;;;;;;;;;;;14.40;99.90;;;;;;5006198;28;19909;-74
2022/04/29 02:50:29;;;;;;;;;;;14.40;99.90;;;;;;5009536;28;19933;-71
2022/04/29 02:52:55;;;;;;;;;;;14.30;99.90;;;;;;5007387;28;19951;-71
2022/04/29 02:55:25;;;;;;;;;;;14.40;99.90;;;;;;5010168;28;19913;-73
2022/04/29 02:57:50;;;;;;;;;;;14.40;99.90;;;;;;5006683;28;20392;-72
2022/04/29 03:00:29;;;;;;;;;;;14.40;99.90;;;;;;5006869;28;19917;-73
2022/04/29 03:02:55;;;;;;;;;;;14.40;99.90;;;;;;5006185;28;19910;-70
2022/04/29 03:05:21;;;;;;;;;;;14.40;99.90;;;;;;5006715;28;19916;-74
2022/04/29 03:07:47;;;;;;;;;;;14.40;99.90;;;;;;5008292;28;19917;-71
2022/04/29 03:10:12;;;;;;;;;;;14.30;99.90;;;;;;5010665;28;19960;-71
2022/04/29 03:12:38;;;;;;;;;;;14.40;99.90;;;;;;5008478;28;19932;-71
2022/04/29 03:15:36;;;;;;;;;;;14.40;99.90;;;;;;5010104;28;20369;-72
2022/04/29 03:20:41;;;;;;;;;;;14.50;99.90;;;;;;5010715;28;20367;-70
2022/04/29 03:23:08;;;;;;;;;;;14.50;99.90;;;;;;5010063;28;20358;-71
2022/04/29 03:25:34;;;;;;;;;;;14.50;99.90;;;;;;5004861;28;19916;-73
2022/04/29 03:28:01;;;;;;;;;;;14.50;99.90;;;;;;5006313;28;19960;-73
2022/04/29 03:30:27;;;;;;;;;;;14.50;99.90;;;;;;5007173;28;19920;-71
2022/04/29 03:32:53;;;;;;;;;;;14.60;99.90;;;;;;5009448;28;19921;-70
2022/04/29 03:35:19;;;;;;;;;;;14.50;99.90;;;;;;5007548;28;20344;-71
2022/04/29 03:37:45;;;;;;;;;;;14.50;99.90;;;;;;5000300;28;19909;-71
2022/04/29 03:40:14;;;;;;;;;;;14.50;99.90;;;;;;5013041;28;19909;-71
2022/04/29 03:42:40;;;;;;;;;;;14.40;99.90;;;;;;5010607;28;19916;-70
2022/04/29 03:45:05;;;;;;;;;;;14.50;99.90;;;;;;5010927;28;19910;-71
2022/04/29 03:47:31;;;;;;;;;;;14.50;99.90;;;;;;5010235;28;20365;-72
2022/04/29 03:50:28;;;;;;;;;;;14.50;99.90;;;;;;5007695;28;20356;-71
2022/04/29 03:52:55;;;;;;;;;;;14.40;99.90;;;;;;5001851;28;20005;-71
2022/04/29 03:55:21;;;;;;;;;;;14.40;99.90;;;;;;5003971;28;19923;-71
2022/04/29 03:57:47;;;;;;;;;;;14.40;99.90;;;;;;5012629;28;19967;-71
2022/04/29 04:00:13;;;;;;;;;;;14.40;99.90;;;;;;5010777;28;19909;-71
2022/04/29 04:02:39;;;;;;;;;;;14.40;99.90;;;;;;5007952;28;19916;-72
2022/04/29 04:05:05;;;;;;;;;;;14.40;99.90;;;;;;5009217;28;19913;-72
2022/04/29 04:07:31;;;;;;;;;;;14.40;99.90;;;;;;5011899;28;19909;-72
2022/04/29 04:09:57;;;;;;;;;;;14.40;99.90;;;;;;5009982;28;19910;-71
2022/04/29 04:12:22;;;;;;;;;;;14.40;99.90;;;;;;5008003;28;19944;-72
2022/04/29 04:14:48;;;;;;;;;;;14.40;99.90;;;;;;5010988;28;20387;-71
2022/04/29 04:17:13;;;;;;;;;;;14.40;99.90;;;;;;5011591;28;19955;-71
2022/04/29 04:19:39;;;;;;;;;;;14.40;99.90;;;;;;5012427;28;20372;-71
2022/04/29 04:22:04;;;;;;;;;;;14.40;99.90;;;;;;5007947;28;19917;-69
2022/04/29 04:24:30;;;;;;;;;;;14.50;99.90;;;;;;5005950;28;19909;-69
2022/04/29 04:26:56;;;;;;;;;;;14.50;99.90;;;;;;5009259;28;19968;-70
2022/04/29 04:29:21;;;;;;;;;;;14.30;99.90;;;;;;5009944;28;19996;-70
2022/04/29 04:31:47;;;;;;;;;;;14.30;99.90;;;;;;5007764;28;19920;-71
2022/04/29 04:36:57;;;;;;;;;;;14.40;99.90;;;;;;5010416;28;20112;-70
2022/04/29 04:39:23;;;;;;;;;;;14.40;99.90;;;;;;5012235;28;20200;-71
2022/04/29 04:41:49;;;;;;;;;;;14.40;99.90;;;;;;5012908;28;20000;-71
2022/04/29 04:44:14;;;;;;;;;;;14.40;99.90;;;;;;5010014;28;20000;-70
2022/04/29 04:46:40;;;;;;;;;;;14.30;99.90;;;;;;5009079;28;19916;-71
2022/04/29 04:49:06;;;;;;;;;;;14.20;99.90;;;;;;5012848;28;20354;-72
2022/04/29 04:51:32;;;;;;;;;;;14.20;99.90;;;;;;5012996;28;19905;-73
2022/04/29 04:53:58;;;;;;;;;;;14.20;99.90;;;;;;5013443;28;19905;-71
2022/04/29 04:56:24;;;;;;;;;;;14.50;99.90;;;;;;5012869;28;19924;-70
2022/04/29 04:58:49;;;;;;;;;;;14.50;99.90;;;;;;5011824;28;20413;-72
2022/04/29 05:01:15;;;;;;;;;;;14.60;99.90;;;;;;5012561;28;19920;-71
2022/04/29 05:03:43;;;;;;;;;;;14.50;99.90;;;;;;5012385;28;20340;-73
2022/04/29 05:06:08;;;;;;;;;;;14.50;99.90;;;;;;5010416;28;19928;-73
2022/04/29 05:08:34;;;;;;;;;;;14.40;99.90;;;;;;5011339;28;20369;-72
2022/04/29 05:10:59;;;;;;;;;;;14.50;99.90;;;;;;5012000;28;19999;-73
2022/04/29 05:13:25;;;;;;;;;;;14.50;99.90;;;;;;5009905;28;19917;-72
2022/04/29 05:15:51;;;;;;;;;;;14.70;99.90;;;;;;5006914;28;20472;-72
2022/04/29 05:18:17;;;;;;;;;;;14.60;99.90;;;;;;5009327;28;19920;-71
2022/04/29 05:20:42;;;;;;;;;;;14.70;99.90;;;;;;5011966;28;20267;-72
2022/04/29 05:23:08;;;;;;;;;;;14.70;99.90;;;;;;5011102;28;19913;-71
2022/04/29 05:25:34;;;;;;;;;;;14.70;99.90;;;;;;5011365;28;19906;-71
2022/04/29 05:28:00;;;;;;;;;;;14.70;99.90;;;;;;5008593;28;20344;-72
2022/04/29 05:30:27;;;;;;;;;;;14.70;99.90;;;;;;5011759;28;20483;-71
2022/04/29 05:32:53;;;;;;;;;;;15.00;99.90;;;;;;5011664;28;20363;-72
2022/04/29 05:35:18;;;;;;;;;;;15.20;99.90;;;;;;5010865;28;19992;-73
2022/04/29 05:37:44;;;;;;;;;;;15.40;99.90;;;;;;5011466;28;19948;-71
2022/04/29 05:42:55;;;;;;;;;;;15.50;99.90;;;;;;5009161;28;21552;-72
2022/04/29 05:45:21;;;;;;;;;;;15.60;99.90;;;;;;5007137;28;19965;-72
2022/04/29 05:47:46;;;;;;;;;;;15.50;99.90;;;;;;5011870;28;19909;-70
2022/04/29 05:50:12;;;;;;;;;;;15.40;99.90;;;;;;5010039;28;20345;-72
2022/04/29 05:52:37;;;;;;;;;;;15.40;99.90;;;;;;5010325;28;19921;-73
2022/04/29 05:55:03;;;;;;;;;;;15.50;99.90;;;;;;5009207;28;20227;-70
2022/04/29 05:57:29;;;;;;;;;;;15.50;99.90;;;;;;5012305;28;19906;-71
2022/04/29 05:59:54;;;;;;;;;;;15.50;99.90;;;;;;5010278;28;20351;-71
2022/04/29 06:02:23;;;;;;;;;;;15.60;99.90;;;;;;5010585;28;20369;-71
2022/04/29 06:04:49;;;;;;;;;;;15.70;99.90;;;;;;5008840;28;19913;-72
2022/04/29 06:07:14;;;;;;;;;;;15.70;99.90;;;;;;5010130;28;19906;-72
2022/04/29 06:09:40;;;;;;;;;;;15.80;99.90;;;;;;5009403;28;19964;-73
2022/04/29 06:12:06;;;;;;;;;;;15.80;99.70;;;;;;5008875;28;20409;-70
2022/04/29 06:14:31;;;;;;;;;;;15.90;99.20;;;;;;5011250;28;19999;-71
2022/04/29 06:16:57;;;;;;;;;;;16.00;99.10;;;;;;5010034;28;19913;-71
2022/04/29 06:19:23;;;;;;;;;;;16.10;98.90;;;;;;5010946;28;20008;-73
2022/04/29 06:21:48;;;;;;;;;;;16.20;98.50;;;;;;5011196;28;19912;-71
2022/04/29 06:24:14;;;;;;;;;;;16.20;98.60;;;;;;5006363;28;20237;-72
2022/04/29 06:26:40;;;;;;;;;;;16.30;99.20;;;;;;5009508;28;19951;-72
2022/04/29 06:29:05;;;;;;;;;;;16.30;98.60;;;;;;5011243;28;19912;-72
2022/04/29 06:31:31;;;;;;;;;;;16.30;98.30;;;;;;5009650;28;19906;-71
2022/04/29 06:33:56;;;;;;;;;;;16.30;98.40;;;;;;5010822;28;19913;-71
2022/04/29 06:36:22;;;;;;;;;;;16.40;98.10;;;;;;5007659;28;19916;-71
2022/04/29 06:38:49;;;;;;;;;;;16.40;98.30;;;;;;5010386;28;19922;-70
2022/04/29 06:41:14;;;;;;;;;;;16.50;97.90;;;;;;5028393;28;19905;-71
2022/04/29 06:43:40;;;;;;;;;;;16.40;97.90;;;;;;5016599;28;19979;-72
2022/04/29 06:46:05;;;;;;;;;;;16.50;98.30;;;;;;5011776;28;19913;-72
2022/04/29 06:48:31;;;;;;;;;;;16.60;97.70;;;;;;5009632;28;20277;-71
2022/04/29 06:50:58;;;;;;;;;;;16.60;97.80;;;;;;5007665;28;19920;-73
2022/04/29 06:53:24;;;;;;;;;;;16.70;97.90;;;;;;5010252;28;20061;-71
2022/04/29 06:55:49;;;;;;;;;;;16.70;97.70;;;;;;5007522;28;19916;-71
2022/04/29 06:58:15;;;;;;;;;;;16.80;97.80;;;;;;5013156;28;19955;-70
2022/04/29 07:00:42;;;;;;;;;;;16.80;97.30;;;;;;5012942;28;19932;-72
2022/04/29 07:03:08;;;;;;;;;;;16.80;97.30;;;;;;5013696;28;19963;-71
2022/04/29 07:05:36;;;;;;;;;;;16.80;97.00;;;;;;5012056;28;20273;-72
2022/04/29 07:08:02;;;;;;;;;;;16.90;97.50;;;;;;5015147;28;19905;-74
2022/04/29 07:10:28;;;;;;;;;;;17.00;97.60;;;;;;5013061;28;19905;-71
2022/04/29 07:12:54;;;;;;;;;;;17.20;97.30;;;;;;5009178;28;19963;-72
2022/04/29 07:15:21;;;;;;;;;;;17.30;97.10;;;;;;5013581;28;19936;-71
2022/04/29 07:17:47;;;;;;;;;;;17.30;96.90;;;;;;5011272;28;19971;-71
2022/04/29 07:20:13;;;;;;;;;;;17.20;96.80;;;;;;5012590;28;20325;-71
2022/04/29 07:22:39;;;;;;;;;;;17.30;96.90;;;;;;5012932;28;19910;-73
2022/04/29 07:25:05;;;;;;;;;;;17.40;96.60;;;;;;5013320;28;19909;-72
2022/04/29 07:27:32;;;;;;;;;;;17.40;96.80;;;;;;5012237;28;19909;-72
2022/04/29 07:29:58;;;;;;;;;;;17.50;96.90;;;;;;5010417;28;20408;-71
2022/04/29 07:32:25;;;;;;;;;;;17.60;97.00;;;;;;5010174;28;19914;-70
2022/04/29 07:43:11;;;;;;;;;;;17.90;96.20;;;;;;5010097;28;20412;-69
2022/04/29 07:45:37;;;;;;;;;;;17.70;96.20;;;;;;5001143;28;20281;-69
2022/04/29 07:48:05;;;;;;;;;;;17.70;96.10;;;;;;5010815;28;19905;-70
2022/04/29 07:50:31;;;;;;;;;;;17.60;96.00;;;;;;5011261;28;19916;-70
2022/04/29 07:52:58;;;;;;;;;;;17.60;95.90;;;;;;5012088;28;19960;-70
2022/04/29 07:55:23;;;;;;;;;;;17.80;96.00;;;;;;5012789;28;19917;-69
2022/04/29 07:57:49;;;;;;;;;;;17.70;95.40;;;;;;5012387;28;20361;-69
2022/04/29 08:00:15;;;;;;;;;;;17.70;95.50;;;;;;5012268;28;19905;-69
2022/04/29 08:02:41;;;;;;;;;;;17.90;96.30;;;;;;5011233;28;20004;-70
2022/04/29 08:05:07;;;;;;;;;;;17.90;95.90;;;;;;5012391;28;19917;-70
2022/04/29 08:07:33;;;;;;;;;;;18.10;95.80;;;;;;5010405;28;20312;-69
2022/04/29 08:09:59;;;;;;;;;;;18.20;96.50;;;;;;5004890;28;19917;-69
2022/04/29 08:12:26;;;;;;;;;;;18.30;96.20;;;;;;5002683;28;19954;-71
2022/04/29 08:14:56;;;;;;;;;;;18.40;95.40;;;;;;5010370;28;19933;-71
2022/04/29 08:17:22;;;;;;;;;;;18.40;95.30;;;;;;5013316;28;19905;-70
2022/04/29 08:19:51;;;;;;;;;;;18.30;95.30;;;;;;5012030;28;19924;-69
2022/04/29 08:22:17;;;;;;;;;;;18.40;96.20;;;;;;5012660;28;20191;-70
2022/04/29 08:24:43;;;;;;;;;;;18.20;95.30;;;;;;5011733;28;20000;-71
2022/04/29 08:27:10;;;;;;;;;;;18.20;95.60;;;;;;5011145;28;20043;-70
2022/04/29 08:29:36;;;;;;;;;;;18.40;95.20;;;;;;5011704;28;19949;-70
2022/04/29 08:32:04;;;;;;;;;;;18.40;94.80;;;;;;5010400;28;20000;-71
2022/04/29 08:34:29;;;;;;;;;;;18.40;94.90;;;;;;5013047;28;19912;-72
2022/04/29 08:36:55;;;;;;;;;;;18.40;95.20;;;;;;5012123;28;20277;-70
2022/04/29 08:39:21;;;;;;;;;;;18.60;95.10;;;;;;5007720;28;19921;-68
2022/04/29 08:41:48;;;;;;;;;;;18.60;94.70;;;;;;5010897;28;19967;-68
2022/04/29 08:44:16;;;;;;;;;;;18.60;95.10;;;;;;5009149;28;19909;-68
2022/04/29 08:46:42;;;;;;;;;;;18.70;95.10;;;;;;5007963;28;19909;-68
2022/04/29 08:49:08;;;;;;;;;;;18.70;95.10;;;;;;5004024;28;20136;-68
2022/04/29 08:51:36;;;;;;;;;;;18.80;95.20;;;;;;5008938;28;19945;-67
2022/04/29 08:54:02;;;;;;;;;;;18.70;94.80;;;;;;5009295;28;19913;-69
2022/04/29 08:59:12;;;;;;;;;;;18.80;94.90;;;;;;5009111;28;20032;-69
2022/04/29 09:01:40;;;;;;;;;;;18.80;95.70;;;;;;5009902;28;19984;-69
2022/04/29 09:04:06;;;;;;;;;;;18.80;94.60;;;;;;5009517;28;19915;-69
2022/04/29 09:06:32;;;;;;;;;;;19.00;95.00;;;;;;5013082;28;19905;-68
2022/04/29 09:09:10;;;;;;;;;;;19.10;95.40;;;;;;5012668;28;19912;-69
2022/04/29 09:11:36;;;;;;;;;;;19.20;95.60;;;;;;5012867;28;19912;-69
2022/04/29 09:14:20;;;;;;;;;;;19.20;95.00;;;;;;5011365;28;19975;-69
2022/04/29 09:16:45;;;;;;;;;;;19.30;95.40;;;;;;5011103;28;19925;-68
2022/04/29 09:19:27;;;;;;;;;;;19.20;94.50;;;;;;5002841;28;20272;-68
2022/04/29 09:22:03;;;;;;;;;;;19.20;94.60;;;;;;5009831;28;19995;-69
2022/04/29 09:24:29;;;;;;;;;;;19.30;94.70;;;;;;5010809;28;19909;-68
2022/04/29 09:26:58;;;;;;;;;;;19.40;94.80;;;;;;5007405;28;19909;-68
2022/04/29 09:29:24;;;;;;;;;;;19.60;95.30;;;;;;5014825;28;20384;-68
2022/04/29 09:31:53;;;;;;;;;;;19.80;95.40;;;;;;5016089;28;19910;-68
2022/04/29 09:34:19;;;;;;;;;;;19.80;94.00;;;;;;5013931;28;19909;-68
2022/04/29 09:36:45;;;;;;;;;;;19.40;94.40;;;;;;5017401;28;19912;-68
2022/04/29 09:41:55;;;;;;;;;;;19.50;94.30;;;;;;5003635;28;19967;-69
2022/04/29 09:44:36;;;;;;;;;;;19.60;94.70;;;;;;5008706;28;20017;-68
2022/04/29 09:47:21;;;;;;;;;;;19.40;94.20;;;;;;5010048;28;20388;-68
2022/04/29 09:49:58;;;;;;;;;;;19.20;93.90;;;;;;5010924;28;20029;-68
2022/04/29 09:52:25;;;;;;;;;;;19.10;93.90;;;;;;5011909;28;19905;-68
2022/04/29 09:54:51;;;;;;;;;;;19.20;93.70;;;;;;5011873;28;19913;-68
2022/04/29 09:57:18;;;;;;;;;;;19.50;94.70;;;;;;5011980;28;19905;-68
2022/04/29 09:59:45;;;;;;;;;;;19.70;94.60;;;;;;5010158;28;19945;-68
2022/04/29 10:02:12;;;;;;;;;;;19.90;93.70;;;;;;5012731;28;20362;-67
2022/04/29 10:04:42;;;;;;;;;;;19.80;93.50;;;;;;5026002;28;19913;-69
2022/04/29 10:07:08;;;;;;;;;;;19.90;93.70;;;;;;5018946;28;19916;-69
2022/04/29 10:09:34;;;;;;;;;;;19.70;93.10;;;;;;5011872;28;19905;-69
2022/04/29 10:12:04;;;;;;;;;;;19.70;93.40;;;;;;5011681;28;19905;-69
2022/04/29 10:14:30;;;;;;;;;;;19.80;93.40;;;;;;5006954;28;19910;-68
2022/04/29 10:22:40;;;;;;;;;;;20.00;94.00;;;;;;5009667;28;19916;-70
2022/04/29 10:25:07;;;;;;;;;;;20.00;93.20;;;;;;5010068;28;20206;-68
2022/04/29 10:27:33;;;;;;;;;;;19.90;93.20;;;;;;5009327;28;19919;-69
2022/04/29 10:29:59;;;;;;;;;;;20.00;93.50;;;;;;5010060;28;19995;-70
2022/04/29 10:32:25;;;;;;;;;;;20.00;93.50;;;;;;5001659;28;19913;-70
2022/04/29 10:34:54;;;;;;;;;;;20.10;93.20;;;;;;5012882;28;19916;-67
2022/04/29 10:37:30;;;;;;;;;;;20.20;92.50;;;;;;5010026;28;19941;-71
2022/04/29 10:40:11;;;;;;;;;;;20.00;93.20;;;;;;5012108;28;19914;-71
2022/04/29 10:42:55;;;;;;;;;;;20.20;93.70;;;;;;5004125;28;19936;-70
2022/04/29 10:45:20;;;;;;;;;;;20.20;92.80;;;;;;5011229;28;19964;-70
2022/04/29 10:47:50;;;;;;;;;;;20.20;93.40;;;;;;5011716;28;19914;-72
2022/04/29 10:50:34;;;;;;;;;;;20.50;93.90;;;;;;5012247;28;19909;-70
2022/04/29 10:53:04;;;;;;;;;;;20.60;92.80;;;;;;5009500;28;19996;-72
2022/04/29 10:55:29;;;;;;;;;;;20.50;93.10;;;;;;5009282;28;19906;-71
2022/04/29 10:58:18;;;;;;;;;;;20.60;92.80;;;;;;5011568;28;20316;-71
2022/04/29 11:01:16;;;;;;;;;;;20.60;93.30;;;;;;5010381;28;19909;-71
2022/04/29 11:03:44;;;;;;;;;;;20.60;92.40;;;;;;5001968;28;19913;-72
2022/04/29 11:06:14;;;;;;;;;;;20.60;92.80;;;;;;5013606;28;20309;-69
2022/04/29 11:08:40;;;;;;;;;;;20.70;91.70;;;;;;5011557;28;20358;-70
2022/04/29 11:11:06;;;;;;;;;;;20.80;93.20;;;;;;5010711;28;19964;-72
2022/04/29 11:13:36;;;;;;;;;;;21.00;92.60;;;;;;5006433;28;19913;-70
2022/04/29 11:16:09;;;;;;;;;;;20.90;92.30;;;;;;5008870;28;19916;-70
2022/04/29 11:18:35;;;;;;;;;;;20.80;92.70;;;;;;5005564;28;20365;-71
2022/04/29 11:24:40;;;;;;;;;;;20.90;92.60;;;;;;5006766;28;19920;-71
2022/04/29 11:26:41;;;;;;;;;;;20.80;91.00;;;;;;5002569;28;19967;-70
2022/04/29 11:29:09;;;;;;;;;;;20.80;91.30;;;;;;5007878;28;19919;-71
2022/04/29 11:31:35;;;;;;;;;;;20.90;91.40;;;;;;5008809;28;19910;-71
2022/04/29 11:34:08;;;;;;;;;;;20.80;91.60;;;;;;5009368;28;19920;-71
2022/04/29 11:36:33;;;;;;;;;;;20.80;92.30;;;;;;5007319;28;19965;-70
2022/04/29 11:38:59;;;;;;;;;;;21.00;92.30;;;;;;5009178;28;20020;-70
2022/04/29 11:41:27;;;;;;;;;;;21.00;92.00;;;;;;5013997;28;20202;-71
2022/04/29 11:43:53;;;;;;;;;;;21.20;91.90;;;;;;5013075;28;20313;-71
2022/04/29 11:46:19;;;;;;;;;;;21.30;92.50;;;;;;5011860;28;19909;-71
2022/04/29 11:48:53;;;;;;;;;;;21.40;91.70;;;;;;5008274;28;19909;-70
2022/04/29 11:51:18;;;;;;;;;;;21.30;91.50;;;;;;5013873;28;19925;-70
2022/04/29 11:53:54;;;;;;;;;;;21.10;91.30;;;;;;5014511;28;19906;-70
2022/04/29 11:56:20;;;;;;;;;;;21.20;91.40;;;;;;5013604;28;19953;-71
2022/04/29 11:58:45;;;;;;;;;;;21.20;90.30;;;;;;5010980;28;19948;-70
2022/04/29 12:01:14;;;;;;;;;;;21.10;90.20;;;;;;5013786;28;19912;-70
2022/04/29 12:03:45;;;;;;;;;;;21.20;91.20;;;;;;5026987;28;19912;-70
2022/04/29 12:06:11;;;;;;;;;;;21.50;91.00;;;;;;5027115;28;19910;-71
2022/04/29 12:08:37;;;;;;;;;;;21.60;91.40;;;;;;5013345;28;20362;-71
2022/04/29 12:11:03;;;;;;;;;;;21.50;90.30;;;;;;5009908;28;19928;-70
2022/04/29 12:13:29;;;;;;;;;;;21.60;90.90;;;;;;5011940;28;19905;-71
2022/04/29 12:15:56;;;;;;;;;;;21.60;90.80;;;;;;5012373;28;19910;-70
2022/04/29 12:18:36;;;;;;;;;;;21.40;90.30;;;;;;5013921;28;19976;-71
2022/04/29 12:21:02;;;;;;;;;;;21.30;90.70;;;;;;5029686;28;19928;-70
2022/04/29 12:23:31;;;;;;;;;;;21.50;90.60;;;;;;5011319;28;19910;-71
2022/04/29 12:25:59;;;;;;;;;;;21.40;90.00;;;;;;5009230;28;20373;-71
2022/04/29 12:28:27;;;;;;;;;;;21.40;90.10;;;;;;5011310;28;19975;-71
2022/04/29 12:36:26;;;;;;;;;;;21.50;90.70;;;;;;5008709;28;19920;-71
2022/04/29 12:39:02;;;;;;;;;;;21.60;90.30;;;;;;5012493;28;19909;-71
2022/04/29 12:41:29;;;;;;;;;;;21.60;90.60;;;;;;5005276;28;20334;-71
2022/04/29 12:46:59;;;;;;;;;;;21.70;90.50;;;;;;5011544;28;19932;-71
2022/04/29 12:49:26;;;;;;;;;;;21.90;90.50;;;;;;5002441;28;19963;-71
2022/04/29 12:51:58;;;;;;;;;;;22.00;91.00;;;;;;5006322;28;19910;-70
2022/04/29 12:54:25;;;;;;;;;;;22.10;90.50;;;;;;5011151;28;19976;-72
2022/04/29 12:56:53;;;;;;;;;;;22.00;90.10;;;;;;5009387;28;19960;-71
2022/04/29 12:59:23;;;;;;;;;;;22.10;89.60;;;;;;5010200;28;20538;-71
2022/04/29 13:01:48;;;;;;;;;;;22.00;90.10;;;;;;5011338;28;19916;-71
2022/04/29 13:04:14;;;;;;;;;;;21.90;90.10;;;;;;5004941;28;19910;-69
2022/04/29 13:06:40;;;;;;;;;;;21.90;89.60;;;;;;5004949;28;19955;-71
2022/04/29 13:09:05;;;;;;;;;;;21.80;87.70;;;;;;5008481;28;20006;-70
2022/04/29 13:11:32;;;;;;;;;;;21.70;87.70;;;;;;5011977;28;19920;-71
2022/04/29 13:13:58;;;;;;;;;;;21.90;88.80;;;;;;5004526;28;19917;-70
2022/04/29 13:16:24;;;;;;;;;;;22.00;89.30;;;;;;5006836;28;19910;-69
2022/04/29 13:18:50;;;;;;;;;;;22.10;89.20;;;;;;5011700;28;20392;-71
2022/04/29 13:21:17;;;;;;;;;;;22.20;88.00;;;;;;5006048;28;20019;-70
2022/04/29 13:23:44;;;;;;;;;;;22.40;88.90;;;;;;5011868;28;19956;-71
2022/04/29 13:26:10;;;;;;;;;;;22.40;87.20;;;;;;5013038;28;19905;-71
2022/04/29 13:28:37;;;;;;;;;;;22.40;89.60;;;;;;5014639;28;19937;-70
2022/04/29 13:31:03;;;;;;;;;;;22.30;86.40;;;;;;5009845;28;19960;-70
2022/04/29 13:33:29;;;;;;;;;;;22.10;88.60;;;;;;5013335;28;19936;-71
2022/04/29 13:35:55;;;;;;;;;;;22.10;88.70;;;;;;5020179;28;19913;-70
2022/04/29 13:38:22;;;;;;;;;;;22.40;88.00;;;;;;5000224;28;20366;-70
2022/04/29 13:40:48;;;;;;;;;;;22.30;86.50;;;;;;5007233;28;20136;-70
2022/04/29 13:43:14;;;;;;;;;;;22.20;87.50;;;;;;5011179;28;20008;-71
2022/04/29 13:45:40;;;;;;;;;;;22.40;88.70;;;;;;5007769;28;19935;-72
2022/04/29 13:48:07;;;;;;;;;;;22.60;86.90;;;;;;5010685;28;19913;-71
2022/04/29 13:50:33;;;;;;;;;;;22.70;86.70;;;;;;5003264;28;20129;-71
2022/04/29 13:53:08;;;;;;;;;;;22.60;85.70;;;;;;5018124;28;20380;-71
2022/04/29 13:55:37;;;;;;;;;;;22.40;86.10;;;;;;5011437;28;20350;-71
2022/04/29 13:58:03;;;;;;;;;;;22.40;86.40;;;;;;5010786;28;19916;-71
2022/04/29 14:00:29;;;;;;;;;;;22.60;85.50;;;;;;5009211;28;20381;-69
2022/04/29 14:02:55;;;;;;;;;;;23.00;85.30;;;;;;5007098;28;19909;-69
2022/04/29 14:05:23;;;;;;;;;;;22.70;86.10;;;;;;5006768;28;19924;-70
2022/04/29 14:07:48;;;;;;;;;;;22.40;86.90;;;;;;5009528;28;20302;-71
2022/04/29 14:10:14;;;;;;;;;;;22.50;87.60;;;;;;5011764;28;19984;-71
2022/04/29 14:12:40;;;;;;;;;;;22.50;87.40;;;;;;5022673;28;20017;-71
2022/04/29 14:15:07;;;;;;;;;;;22.60;86.40;;;;;;5002056;28;20000;-70
2022/04/29 14:17:32;;;;;;;;;;;22.50;85.90;;;;;;5011175;28;19951;-70
2022/04/29 14:19:58;;;;;;;;;;;22.50;85.10;;;;;;5011618;28;19917;-71
2022/04/29 14:22:23;;;;;;;;;;;22.10;84.80;;;;;;5004797;28;20401;-70
2022/04/29 14:24:49;;;;;;;;;;;22.10;86.30;;;;;;5006125;28;19913;-71
2022/04/29 14:27:15;;;;;;;;;;;22.20;86.50;;;;;;5008069;28;19910;-71
2022/04/29 14:29:42;;;;;;;;;;;22.10;85.50;;;;;;5010453;28;20509;-70
2022/04/29 14:32:11;;;;;;;;;;;22.20;85.60;;;;;;5012106;28;20385;-70
2022/04/29 14:34:37;;;;;;;;;;;22.20;85.20;;;;;;5008399;28;19951;-71
2022/04/29 14:37:03;;;;;;;;;;;22.50;85.10;;;;;;5011198;28;19905;-70
2022/04/29 14:39:28;;;;;;;;;;;22.50;85.60;;;;;;5010578;28;19909;-70
2022/04/29 14:41:56;;;;;;;;;;;22.80;84.80;;;;;;5008872;28;20007;-70
2022/04/29 14:44:22;;;;;;;;;;;22.50;84.70;;;;;;5008619;28;19905;-71
2022/04/29 14:46:48;;;;;;;;;;;22.50;87.30;;;;;;5010650;28;19928;-71
2022/04/29 14:49:14;;;;;;;;;;;22.70;86.60;;;;;;5010285;28;20028;-71
2022/04/29 14:51:40;;;;;;;;;;;22.90;86.60;;;;;;5009415;28;19976;-71
2022/04/29 14:54:07;;;;;;;;;;;23.10;85.50;;;;;;5008449;28;20057;-71
2022/04/29 14:56:33;;;;;;;;;;;23.00;85.00;;;;;;5010937;28;19916;-70